createdAt,value
2017-10-24T00:09:16.906Z,8.8
2017-10-24T00:19:31.155Z,9.0
2017-10-24T00:29:45.054Z,9.2
2017-10-24T00:39:58.558Z,9.4
2017-10-24T00:50:10.584Z,9.6
2017-10-24T01:00:55.315Z,10.0
2017-10-24T01:11:09.419Z,10.0
2017-10-24T01:21:23.626Z,10.2
2017-10-24T01:31:38.136Z,10.4
2017-10-24T01:41:52.382Z,10.5
2017-10-24T01:52:06.633Z,10.7
2017-10-24T02:02:18.972Z,10.8
2017-10-24T02:12:32.877Z,10.9
2017-10-24T02:22:46.988Z,11.0
2017-10-24T02:33:01.349Z,11.1
2017-10-24T02:43:15.759Z,11.2
2017-10-24T02:54:00.320Z,11.4
2017-10-24T03:04:14.729Z,11.4
2017-10-24T03:14:28.725Z,11.4
2017-10-24T03:24:43.178Z,11.5
2017-10-24T03:34:57.425Z,11.6
2017-10-24T03:45:09.317Z,11.6
2017-10-24T03:55:23.841Z,11.7
2017-10-24T04:05:37.721Z,11.7
2017-10-24T04:15:52.040Z,11.7
2017-10-24T04:26:06.222Z,11.8
2017-10-24T04:36:20.453Z,11.8
2017-10-24T04:46:34.468Z,11.8
2017-10-24T04:56:47.992Z,11.9
2017-10-24T05:06:59.443Z,11.9
2017-10-24T05:17:11.534Z,11.9
2017-10-24T05:27:25.519Z,12.0
2017-10-24T05:37:40.131Z,12.0
2017-10-24T05:47:53.924Z,12.0
2017-10-24T05:58:07.149Z,12.0
2017-10-24T06:08:18.563Z,12.0
2017-10-24T06:18:33.037Z,12.1
2017-10-24T06:28:47.392Z,12.1
2017-10-24T06:39:01.441Z,12.1
2017-10-24T06:49:15.826Z,12.2
2017-10-24T07:00:00.423Z,12.2
2017-10-24T07:10:14.654Z,12.2
2017-10-24T07:20:26.961Z,12.3
2017-10-24T07:30:41.143Z,12.3
2017-10-24T07:40:55.283Z,12.4
2017-10-24T07:51:09.409Z,12.4
2017-10-24T08:01:23.615Z,12.5
2017-10-24T08:11:37.659Z,12.6
2017-10-24T08:21:52.235Z,12.7
2017-10-24T08:32:06.540Z,12.7
2017-10-24T08:42:20.453Z,12.8
2017-10-24T08:52:34.464Z,12.9
2017-10-24T09:02:50.228Z,13.1
2017-10-24T09:13:04.334Z,13.2
2017-10-24T09:23:16.322Z,13.3
2017-10-24T09:33:43.518Z,13.4
2017-10-24T09:43:54.600Z,13.5
2017-10-24T09:54:13.678Z,13.5
2017-10-24T10:04:29.063Z,13.6
2017-10-24T10:14:43.584Z,13.7
2017-10-24T10:24:57.969Z,13.9
2017-10-24T10:35:12.291Z,14.0
2017-10-24T10:45:30.543Z,14.1
2017-10-24T10:56:25.126Z,14.3
2017-10-24T11:07:16.435Z,14.4
2017-10-24T11:17:35.337Z,14.4
2017-10-24T11:27:52.080Z,14.5
2017-10-24T11:38:06.451Z,14.6
2017-10-24T11:48:23.171Z,14.7
2017-10-24T11:58:34.978Z,14.8
2017-10-24T12:08:49.158Z,14.9
2017-10-24T12:19:03.109Z,15.0
2017-10-24T12:29:16.317Z,15.0
2017-10-24T12:40:01.043Z,15.1
2017-10-24T12:50:12.486Z,15.0
2017-10-24T13:00:26.766Z,15.0
2017-10-24T13:10:40.732Z,15.1
2017-10-24T13:20:55.392Z,15.1
2017-10-24T13:31:39.834Z,15.1
2017-10-24T13:41:54.400Z,15.1
2017-10-24T13:52:08.146Z,15.1
2017-10-24T14:02:22.621Z,15.1
2017-10-24T14:12:36.845Z,15.1
2017-10-24T14:22:50.920Z,15.2
2017-10-24T14:33:05.371Z,15.2
2017-10-24T14:43:19.557Z,15.2
2017-10-24T14:53:33.630Z,15.2
2017-10-24T15:04:36.202Z,15.3
2017-10-24T15:14:49.637Z,15.2
2017-10-24T15:25:03.860Z,15.2
2017-10-24T15:35:18.336Z,15.2
2017-10-24T15:45:32.469Z,15.2
2017-10-24T15:55:46.807Z,15.2
2017-10-24T16:06:01.143Z,15.2
2017-10-24T16:16:13.198Z,15.2
2017-10-24T16:26:27.457Z,15.1
2017-10-24T16:36:41.568Z,15.1
2017-10-24T16:46:56.190Z,15.1
2017-10-24T16:57:10.090Z,15.1
2017-10-24T17:07:22.521Z,15.1
2017-10-24T17:17:36.502Z,15.1
2017-10-24T17:27:50.820Z,15.1
2017-10-24T17:38:05.873Z,15.2
2017-10-24T17:48:19.902Z,15.2
2017-10-24T17:59:05.307Z,15.4
2017-10-24T18:09:19.561Z,15.3
2017-10-24T18:20:07.780Z,15.4
2017-10-24T18:30:22.716Z,15.4
2017-10-24T18:40:37.021Z,15.5
2017-10-24T18:50:51.047Z,15.6
2017-10-24T19:01:05.583Z,15.6
2017-10-24T19:11:20.004Z,15.6
2017-10-24T19:21:33.734Z,15.7
2017-10-24T19:31:49.171Z,15.7
2017-10-24T19:42:03.506Z,15.7
2017-10-24T19:52:17.457Z,15.8
2017-10-24T20:03:02.109Z,15.9
2017-10-24T20:13:46.578Z,15.9
2017-10-24T20:23:57.919Z,15.9
2017-10-24T20:34:09.157Z,16.0
2017-10-24T20:44:23.452Z,16.0
2017-10-24T20:54:37.785Z,16.0
2017-10-24T21:04:51.916Z,16.0
2017-10-24T21:15:36.666Z,16.0
2017-10-24T21:25:48.151Z,16.0
2017-10-24T21:36:02.662Z,16.1
2017-10-24T21:46:16.722Z,16.1
2017-10-24T21:56:30.572Z,16.1
2017-10-24T22:06:44.217Z,16.1
2017-10-24T22:16:58.558Z,16.1
2017-10-24T22:27:43.067Z,16.1
2017-10-24T22:38:28.515Z,16.1
2017-10-24T22:48:42.778Z,16.1
2017-10-24T22:58:57.141Z,16.1
2017-10-24T23:09:11.293Z,16.1
2017-10-24T23:19:25.963Z,16.1
2017-10-24T23:29:39.492Z,16.1
2017-10-24T23:39:51.794Z,16.1
2017-10-24T23:50:06.124Z,16.0
